createdAt,value
2022-11-29T00:00:27.018Z,20.27
2022-11-29T00:02:56.640Z,20.63
2022-11-29T00:05:24.125Z,20.53
2022-11-29T00:07:51.296Z,17.53
2022-11-29T00:10:18.665Z,17.63
2022-11-29T00:12:49.057Z,15.97
2022-11-29T00:15:29.002Z,15.77
2022-11-29T00:17:57.182Z,16.13
2022-11-29T00:20:26.555Z,16.37
2022-11-29T00:22:54.352Z,14.93
2022-11-29T00:25:23.587Z,15.00
2022-11-29T00:28:15.991Z,15.90
2022-11-29T00:30:47.705Z,15.87
2022-11-29T00:33:30.063Z,15.63
2022-11-29T00:36:15.957Z,16.07
2022-11-29T00:38:49.022Z,15.93
2022-11-29T00:41:17.417Z,15.47
2022-11-29T00:44:01.347Z,15.97
2022-11-29T00:46:36.373Z,15.87
2022-11-29T00:49:24.075Z,15.07
2022-11-29T00:52:16.371Z,16.07
2022-11-29T00:55:05.117Z,15.53
2022-11-29T00:57:50.481Z,15.03
2022-11-29T01:00:34.254Z,14.80
2022-11-29T01:06:46.412Z,15.07
2022-11-29T01:09:29.641Z,13.20
2022-11-29T01:15:20.970Z,12.57
2022-11-29T01:18:08.025Z,11.43
2022-11-29T01:21:39.477Z,11.70
2022-11-29T01:47:49.625Z,7.93
2022-11-29T01:53:43.705Z,7.27
2022-11-29T01:56:22.659Z,7.43
2022-11-29T01:58:50.024Z,7.70
2022-11-29T02:01:21.054Z,8.50
2022-11-29T02:03:48.178Z,6.70
2022-11-29T02:06:24.567Z,7.50
2022-11-29T02:08:54.729Z,7.10
2022-11-29T02:11:40.687Z,7.40
2022-11-29T02:14:31.832Z,6.73
2022-11-29T02:17:25.269Z,6.97
2022-11-29T02:20:30.265Z,7.33
2022-11-29T02:23:34.029Z,7.07
2022-11-29T02:26:47.166Z,7.30
2022-11-29T02:29:39.229Z,7.30
2022-11-29T02:33:03.177Z,7.37
2022-11-29T02:36:10.922Z,7.57
2022-11-29T02:38:51.997Z,8.13
2022-11-29T02:41:40.915Z,7.50
2022-11-29T02:44:52.431Z,8.63
2022-11-29T02:47:37.912Z,9.60
2022-11-29T02:50:30.181Z,9.00
2022-11-29T02:53:20.611Z,9.30
2022-11-29T02:56:15.624Z,8.77
2022-11-29T02:58:54.414Z,9.30
2022-11-29T03:01:38.167Z,9.00
2022-11-29T03:04:16.769Z,9.70
2022-11-29T03:06:59.375Z,9.47
2022-11-29T03:09:43.294Z,9.90
2022-11-29T03:12:30.854Z,10.00
2022-11-29T03:15:17.854Z,8.80
2022-11-29T03:18:21.703Z,8.87
2022-11-29T03:20:54.994Z,9.37
2022-11-29T03:23:55.010Z,9.10
2022-11-29T03:26:41.615Z,9.50
2022-11-29T03:29:20.729Z,9.03
2022-11-29T03:32:11.221Z,8.80
2022-11-29T03:35:04.383Z,8.17
2022-11-29T03:38:09.210Z,9.03
2022-11-29T03:41:02.829Z,9.40
2022-11-29T03:44:03.131Z,8.77
2022-11-29T03:46:52.741Z,9.03
2022-11-29T03:49:44.031Z,8.90
2022-11-29T03:52:16.275Z,9.23
2022-11-29T03:55:21.162Z,9.03
2022-11-29T03:57:59.062Z,8.67
2022-11-29T04:00:29.247Z,8.80
2022-11-29T04:03:17.959Z,8.80
2022-11-29T04:06:10.559Z,9.33
2022-11-29T04:09:08.984Z,8.87
2022-11-29T04:12:06.221Z,9.03
2022-11-29T04:14:45.973Z,9.13
2022-11-29T04:17:49.049Z,10.00
2022-11-29T04:20:27.917Z,9.93
2022-11-29T04:23:25.861Z,9.47
2022-11-29T04:26:44.061Z,10.17
2022-11-29T04:29:24.910Z,10.67
2022-11-29T04:32:09.501Z,9.90
2022-11-29T04:35:08.559Z,9.77
2022-11-29T04:38:01.819Z,9.97
2022-11-29T04:41:05.353Z,10.03
2022-11-29T04:43:51.687Z,9.50
2022-11-29T04:46:48.386Z,10.30
2022-11-29T04:49:42.977Z,11.23
2022-11-29T04:52:37.483Z,10.67
2022-11-29T04:55:27.669Z,9.90
2022-11-29T04:58:16.571Z,10.87
2022-11-29T05:01:04.911Z,10.13
2022-11-29T05:03:39.410Z,10.50
2022-11-29T05:06:44.898Z,11.70
2022-11-29T05:09:48.387Z,10.20
2022-11-29T05:12:33.187Z,10.83
2022-11-29T05:15:37.615Z,12.33
2022-11-29T05:18:43.008Z,11.30
2022-11-29T05:28:37.286Z,11.33
2022-11-29T05:31:48.632Z,11.33
2022-11-29T05:34:56.879Z,11.67
2022-11-29T05:37:29.471Z,11.87
2022-11-29T05:40:12.093Z,11.97
2022-11-29T05:43:08.944Z,11.30
2022-11-29T05:49:42.763Z,11.63
2022-11-29T05:52:43.896Z,11.43
2022-11-29T05:56:04.823Z,11.83
2022-11-29T05:59:22.092Z,11.83
2022-11-29T06:02:38.874Z,12.00
2022-11-29T06:05:53.919Z,11.67
2022-11-29T06:09:19.380Z,12.30
2022-11-29T06:13:20.035Z,11.40
2022-11-29T06:15:56.924Z,10.83
2022-11-29T06:18:29.336Z,12.63
2022-11-29T06:21:22.553Z,12.87
2022-11-29T06:24:25.525Z,13.97
2022-11-29T06:27:07.867Z,14.07
2022-11-29T06:30:04.616Z,13.73
2022-11-29T06:32:40.885Z,13.47
2022-11-29T06:35:30.718Z,12.47
2022-11-29T06:38:01.139Z,12.73
2022-11-29T06:40:29.044Z,14.47
2022-11-29T06:42:56.004Z,14.23
2022-11-29T06:45:26.044Z,13.20
2022-11-29T06:48:02.470Z,14.43
2022-11-29T06:51:00.414Z,13.27
2022-11-29T06:53:36.216Z,14.40
2022-11-29T06:56:18.166Z,16.40
2022-11-29T06:58:49.992Z,19.13
2022-11-29T07:01:34.401Z,20.40
2022-11-29T07:04:01.733Z,17.17
2022-11-29T07:06:29.956Z,17.70
2022-11-29T07:09:01.476Z,17.13
2022-11-29T07:11:29.406Z,16.60
2022-11-29T07:13:56.767Z,17.20
2022-11-29T07:16:34.039Z,17.53
2022-11-29T07:19:15.573Z,13.77
2022-11-29T07:21:48.599Z,14.23
2022-11-29T07:24:31.035Z,14.77
2022-11-29T07:27:16.052Z,21.33
2022-11-29T07:30:14.487Z,16.80
2022-11-29T07:33:03.215Z,15.67
2022-11-29T07:35:45.935Z,16.33
2022-11-29T07:38:27.901Z,18.40
2022-11-29T07:41:32.474Z,19.70
2022-11-29T07:44:24.328Z,18.70
2022-11-29T07:46:51.501Z,18.60
2022-11-29T07:49:18.629Z,18.37
2022-11-29T07:51:45.585Z,18.87
2022-11-29T07:54:18.104Z,17.80
2022-11-29T07:56:44.935Z,18.43
2022-11-29T07:59:13.002Z,17.67
2022-11-29T08:01:40.352Z,17.97
2022-11-29T08:04:08.017Z,17.43
2022-11-29T08:06:35.463Z,18.57
2022-11-29T08:09:02.949Z,20.53
2022-11-29T08:11:30.068Z,18.27
2022-11-29T08:14:01.894Z,19.73
2022-11-29T08:16:29.312Z,18.83
2022-11-29T08:18:56.260Z,18.77
2022-11-29T08:21:23.243Z,20.30
2022-11-29T08:23:50.960Z,18.80
2022-11-29T08:26:19.938Z,18.27
2022-11-29T08:28:52.043Z,18.57
2022-11-29T08:31:20.045Z,18.90
2022-11-29T08:33:47.257Z,19.50
2022-11-29T08:36:19.831Z,17.50
2022-11-29T08:38:47.507Z,18.50
2022-11-29T08:41:16.528Z,17.60
2022-11-29T08:43:43.967Z,18.70
2022-11-29T08:46:15.291Z,17.80
2022-11-29T08:48:45.723Z,17.87
2022-11-29T08:51:12.745Z,19.23
2022-11-29T08:53:42.489Z,17.40
2022-11-29T08:56:41.776Z,19.23
2022-11-29T08:58:58.718Z,18.00
2022-11-29T09:01:25.765Z,18.67
2022-11-29T09:04:07.152Z,18.03
2022-11-29T09:06:38.700Z,18.90
2022-11-29T09:09:06.120Z,18.23
2022-11-29T09:11:34.841Z,18.93
2022-11-29T09:14:04.417Z,19.13
2022-11-29T09:16:35.343Z,20.10
2022-11-29T09:19:03.014Z,17.37
2022-11-29T09:21:32.467Z,18.47
2022-11-29T09:24:00.899Z,19.30
2022-11-29T09:26:30.735Z,16.60
2022-11-29T09:29:01.521Z,16.90
2022-11-29T09:31:29.747Z,17.40
2022-11-29T09:33:56.731Z,17.20
2022-11-29T09:36:28.432Z,17.87
2022-11-29T09:38:56.840Z,15.60
2022-11-29T09:41:58.157Z,16.03
2022-11-29T09:44:51.163Z,16.97
2022-11-29T09:47:52.659Z,17.67
2022-11-29T09:50:33.825Z,19.77
2022-11-29T09:53:19.114Z,17.77
2022-11-29T09:56:11.756Z,16.80
2022-11-29T09:59:17.309Z,15.47
2022-11-29T10:02:19.730Z,15.50
2022-11-29T10:04:54.418Z,16.27
2022-11-29T10:07:34.104Z,16.97
2022-11-29T10:10:16.160Z,15.10
2022-11-29T10:12:48.811Z,16.23
2022-11-29T10:15:31.480Z,16.50
2022-11-29T10:18:07.316Z,16.23
2022-11-29T10:20:43.519Z,16.53
2022-11-29T10:23:30.277Z,17.27
2022-11-29T10:25:58.423Z,16.23
2022-11-29T10:28:32.394Z,16.60
2022-11-29T10:31:14.299Z,18.17
2022-11-29T10:33:41.965Z,17.37
2022-11-29T10:36:47.921Z,16.57
2022-11-29T10:39:49.844Z,14.37
2022-11-29T10:42:40.549Z,14.53
2022-11-29T10:45:28.188Z,14.80
2022-11-29T10:48:00.937Z,14.70
2022-11-29T10:50:30.647Z,15.10
2022-11-29T10:53:11.526Z,13.77
2022-11-29T10:55:53.935Z,15.50
2022-11-29T10:58:28.709Z,14.07
2022-11-29T11:01:02.302Z,14.17
2022-11-29T11:03:53.182Z,14.47
2022-11-29T11:06:23.369Z,14.97
2022-11-29T11:08:55.739Z,14.77
2022-11-29T11:11:32.411Z,16.20
2022-11-29T11:14:01.656Z,15.57
2022-11-29T11:16:34.195Z,15.40
2022-11-29T11:19:33.610Z,15.00
2022-11-29T11:22:04.705Z,16.10
2022-11-29T11:24:41.192Z,15.27
2022-11-29T11:27:08.539Z,15.10
2022-11-29T11:29:37.860Z,14.77
2022-11-29T11:32:07.936Z,14.60
2022-11-29T11:34:37.340Z,14.07
2022-11-29T11:37:17.080Z,15.07
2022-11-29T11:39:45.979Z,13.63
2022-11-29T11:42:39.090Z,14.63
2022-11-29T11:45:12.042Z,13.07
2022-11-29T11:47:48.738Z,13.47
2022-11-29T11:50:36.948Z,13.00
2022-11-29T11:53:07.713Z,14.03
2022-11-29T11:55:41.118Z,13.13
2022-11-29T11:58:16.579Z,12.47
2022-11-29T12:01:04.335Z,12.13
2022-11-29T12:03:31.713Z,13.43
2022-11-29T12:06:16.614Z,12.57
2022-11-29T12:08:45.103Z,14.20
2022-11-29T12:11:16.114Z,13.53
2022-11-29T12:13:51.876Z,11.57
2022-11-29T12:16:28.491Z,12.80
2022-11-29T12:19:16.651Z,12.97
2022-11-29T12:21:47.950Z,13.57
2022-11-29T12:24:28.778Z,12.90
2022-11-29T12:27:00.720Z,16.43
2022-11-29T12:29:31.592Z,15.37
2022-11-29T12:32:17.065Z,10.40
2022-11-29T12:35:18.834Z,14.57
2022-11-29T12:37:57.090Z,13.53
2022-11-29T12:41:01.594Z,14.23
2022-11-29T12:43:42.291Z,9.03
2022-11-29T12:46:13.725Z,9.97
2022-11-29T12:48:57.113Z,11.23
2022-11-29T12:51:29.939Z,11.57
2022-11-29T12:53:59.606Z,12.47
2022-11-29T12:56:32.443Z,12.23
2022-11-29T12:59:36.197Z,12.57
2022-11-29T13:02:39.541Z,13.23
2022-11-29T13:05:13.014Z,12.73
2022-11-29T13:07:45.867Z,11.90
2022-11-29T13:10:31.200Z,11.57
2022-11-29T13:13:29.298Z,14.23
2022-11-29T13:16:13.540Z,14.57
2022-11-29T13:19:14.763Z,16.30
2022-11-29T13:21:50.583Z,16.53
2022-11-29T13:24:21.890Z,18.30
2022-11-29T13:26:49.614Z,19.13
2022-11-29T13:29:18.277Z,17.60
2022-11-29T13:31:46.800Z,17.97
2022-11-29T13:34:16.312Z,18.93
2022-11-29T13:37:27.440Z,17.57
2022-11-29T13:40:36.930Z,18.20
2022-11-29T13:43:20.835Z,18.27
2022-11-29T13:46:03.373Z,19.73
2022-11-29T13:48:36.937Z,17.77
2022-11-29T13:51:39.282Z,18.77
2022-11-29T13:54:29.117Z,17.17
2022-11-29T13:57:05.147Z,17.40
2022-11-29T13:59:34.657Z,16.17
2022-11-29T14:02:02.080Z,18.63
2022-11-29T14:04:39.366Z,17.63
2022-11-29T14:07:08.096Z,18.27
2022-11-29T14:10:05.923Z,16.50
2022-11-29T14:12:50.487Z,17.70
2022-11-29T14:15:25.348Z,23.10
2022-11-29T14:17:59.018Z,22.17
2022-11-29T14:20:27.976Z,21.20
2022-11-29T14:23:07.686Z,21.43
2022-11-29T14:25:55.459Z,19.77
2022-11-29T14:28:22.187Z,18.60
2022-11-29T14:30:54.620Z,19.03
2022-11-29T14:33:28.613Z,19.07
2022-11-29T14:36:31.544Z,19.03
2022-11-29T14:39:20.179Z,18.53
2022-11-29T14:42:04.005Z,19.60
2022-11-29T14:44:42.947Z,19.67
2022-11-29T14:47:32.820Z,18.50
2022-11-29T14:50:04.062Z,18.53
2022-11-29T14:52:36.074Z,19.57
2022-11-29T14:55:15.151Z,19.57
2022-11-29T14:57:48.121Z,19.67
2022-11-29T15:00:16.662Z,19.43
2022-11-29T15:02:51.821Z,19.97
2022-11-29T15:05:40.773Z,19.83
2022-11-29T15:08:15.684Z,19.13
2022-11-29T15:10:49.256Z,20.83
2022-11-29T15:13:31.285Z,20.70
2022-11-29T15:16:17.295Z,21.00
2022-11-29T15:19:09.074Z,20.50
2022-11-29T15:21:51.321Z,20.57
2022-11-29T15:24:19.695Z,20.90
2022-11-29T15:26:56.536Z,21.03
2022-11-29T15:29:23.561Z,20.53
2022-11-29T15:31:57.253Z,19.27
2022-11-29T15:34:30.378Z,17.70
2022-11-29T15:36:58.231Z,20.17
2022-11-29T15:39:28.211Z,20.30
2022-11-29T15:42:03.737Z,17.93
2022-11-29T15:44:32.824Z,19.70
2022-11-29T15:47:24.610Z,18.90
2022-11-29T15:49:52.744Z,20.90
2022-11-29T15:52:27.025Z,20.83
2022-11-29T15:55:00.182Z,23.57
2022-11-29T15:57:33.302Z,22.27
2022-11-29T16:00:03.202Z,22.07
2022-11-29T16:02:39.428Z,22.80
2022-11-29T16:05:15.269Z,20.97
2022-11-29T16:07:45.898Z,21.10
2022-11-29T16:10:18.086Z,21.70
2022-11-29T16:12:59.711Z,22.53
2022-11-29T16:15:31.345Z,19.77
2022-11-29T16:18:25.642Z,22.43
2022-11-29T16:21:00.487Z,21.07
2022-11-29T16:23:42.196Z,21.97
2022-11-29T16:26:22.494Z,19.90
2022-11-29T16:28:52.579Z,18.20
2022-11-29T16:31:22.906Z,20.40
2022-11-29T16:33:52.685Z,21.00
2022-11-29T16:36:26.595Z,21.77
2022-11-29T16:38:57.222Z,20.67
2022-11-29T16:41:37.144Z,18.33
2022-11-29T16:44:09.122Z,20.03
2022-11-29T16:46:38.979Z,19.43
2022-11-29T16:49:35.964Z,18.80
2022-11-29T16:52:04.152Z,19.97
2022-11-29T16:54:34.406Z,18.70
2022-11-29T16:57:06.487Z,19.10
2022-11-29T16:59:35.366Z,20.20
2022-11-29T17:02:02.416Z,21.53
2022-11-29T17:04:29.334Z,19.93
2022-11-29T17:06:57.425Z,20.03
2022-11-29T17:09:31.078Z,19.10
2022-11-29T17:12:01.607Z,20.13
2022-11-29T17:14:29.520Z,20.33
2022-11-29T17:16:56.415Z,20.07
2022-11-29T17:19:24.092Z,20.33
2022-11-29T17:21:52.264Z,22.10
2022-11-29T17:24:21.460Z,22.97
2022-11-29T17:26:49.124Z,23.60
2022-11-29T17:29:17.694Z,20.17
2022-11-29T17:31:46.217Z,23.23
2022-11-29T17:34:13.318Z,23.20
2022-11-29T17:36:41.486Z,20.17
2022-11-29T17:39:09.782Z,20.07
2022-11-29T17:41:36.812Z,21.27
2022-11-29T17:44:04.055Z,19.97
2022-11-29T17:46:33.760Z,20.60
2022-11-29T17:49:02.663Z,19.47
2022-11-29T17:54:18.793Z,19.50
2022-11-29T17:56:45.676Z,20.97
2022-11-29T17:59:12.703Z,17.57
2022-11-29T18:01:39.567Z,19.23
2022-11-29T18:04:08.579Z,18.80
2022-11-29T18:06:37.469Z,20.63
2022-11-29T18:09:06.178Z,20.30
2022-11-29T18:11:44.892Z,19.47
2022-11-29T18:14:19.811Z,20.87
2022-11-29T18:16:46.727Z,20.50
2022-11-29T18:19:16.517Z,18.90
2022-11-29T18:21:43.476Z,19.90
2022-11-29T18:24:10.960Z,20.70
2022-11-29T18:26:38.927Z,19.70
2022-11-29T18:29:07.343Z,20.10
2022-11-29T18:31:36.809Z,19.40
2022-11-29T18:34:11.954Z,19.77
2022-11-29T18:36:46.376Z,20.03
2022-11-29T18:39:15.868Z,21.80
2022-11-29T18:41:44.986Z,20.43
2022-11-29T18:44:14.308Z,20.40
2022-11-29T18:46:43.181Z,25.27
2022-11-29T18:49:12.591Z,19.50
2022-11-29T18:51:41.151Z,21.30
2022-11-29T18:54:08.055Z,21.23
2022-11-29T18:56:36.020Z,22.93
2022-11-29T18:59:10.281Z,24.83
2022-11-29T19:01:41.387Z,20.47
2022-11-29T19:04:11.791Z,21.50
2022-11-29T19:06:39.957Z,22.67
2022-11-29T19:09:11.420Z,24.17
2022-11-29T19:11:38.727Z,22.17
2022-11-29T19:14:11.534Z,22.13
2022-11-29T19:16:41.617Z,22.70
2022-11-29T19:19:08.707Z,21.53
2022-11-29T19:21:36.093Z,21.87
2022-11-29T19:24:05.510Z,21.33
2022-11-29T19:26:32.846Z,20.57
2022-11-29T19:29:00.997Z,19.27
2022-11-29T19:31:28.382Z,22.40
2022-11-29T19:33:56.577Z,22.63
2022-11-29T19:36:28.893Z,20.67
2022-11-29T19:38:56.526Z,23.20
2022-11-29T19:41:25.841Z,22.37
2022-11-29T19:43:53.189Z,19.73
2022-11-29T19:46:23.448Z,17.03
2022-11-29T19:48:54.557Z,21.00
2022-11-29T19:51:22.406Z,19.23
2022-11-29T19:53:53.010Z,20.67
2022-11-29T19:56:20.658Z,20.97
2022-11-29T19:58:47.917Z,19.13
2022-11-29T20:01:25.266Z,19.73
2022-11-29T20:03:52.619Z,19.60
2022-11-29T20:06:19.844Z,18.07
2022-11-29T20:08:47.386Z,20.17
2022-11-29T20:11:17.446Z,19.73
2022-11-29T20:13:45.826Z,20.47
2022-11-29T20:16:15.084Z,20.53
2022-11-29T20:18:50.137Z,19.77
2022-11-29T20:21:26.438Z,19.00
2022-11-29T20:24:07.167Z,19.40
2022-11-29T20:26:37.193Z,19.57
2022-11-29T20:29:05.932Z,19.40
2022-11-29T20:31:35.086Z,19.40
2022-11-29T20:34:02.947Z,19.93
2022-11-29T20:36:49.761Z,19.43
2022-11-29T20:39:28.998Z,19.77
2022-11-29T20:42:07.690Z,19.80
2022-11-29T20:44:38.665Z,19.33
2022-11-29T20:47:30.921Z,20.37
2022-11-29T20:49:57.916Z,19.97
2022-11-29T20:52:24.846Z,18.77
2022-11-29T20:54:51.601Z,18.90
2022-11-29T20:57:18.327Z,19.30
2022-11-29T20:59:45.280Z,19.90
2022-11-29T21:02:12.413Z,18.60
2022-11-29T21:04:39.751Z,20.40
2022-11-29T21:07:06.536Z,21.07
2022-11-29T21:09:33.331Z,19.60
2022-11-29T21:12:00.445Z,19.17
2022-11-29T21:14:27.397Z,18.10
2022-11-29T21:16:54.472Z,17.83
2022-11-29T21:19:25.329Z,19.33
2022-11-29T21:22:21.053Z,17.23
2022-11-29T21:24:59.677Z,16.30
2022-11-29T21:27:32.358Z,18.27
2022-11-29T21:29:59.779Z,17.97
2022-11-29T21:32:27.574Z,18.07
2022-11-29T21:34:54.499Z,15.93
2022-11-29T21:37:25.686Z,16.00
2022-11-29T21:39:53.522Z,15.07
2022-11-29T21:42:20.823Z,15.30
2022-11-29T21:44:47.910Z,16.47
2022-11-29T21:47:14.983Z,15.63
2022-11-29T21:49:41.815Z,15.83
2022-11-29T21:52:08.955Z,17.37
2022-11-29T21:54:35.857Z,16.90
2022-11-29T21:57:02.764Z,17.40
2022-11-29T21:59:29.526Z,17.90
2022-11-29T22:01:56.642Z,16.77
2022-11-29T22:04:23.623Z,17.40
2022-11-29T22:06:50.417Z,17.90
2022-11-29T22:09:17.225Z,18.47
2022-11-29T22:11:44.602Z,18.13
2022-11-29T22:14:14.515Z,18.00
2022-11-29T22:16:51.600Z,16.30
2022-11-29T22:19:20.838Z,17.90
2022-11-29T22:21:50.217Z,17.60
2022-11-29T22:24:19.116Z,17.40
2022-11-29T22:26:46.973Z,18.73
2022-11-29T22:29:14.301Z,17.83
2022-11-29T22:31:43.082Z,17.57
2022-11-29T22:34:10.288Z,17.23
2022-11-29T22:36:38.134Z,18.30
2022-11-29T22:39:06.177Z,17.50
2022-11-29T22:41:35.328Z,18.77
2022-11-29T22:44:02.717Z,18.20
2022-11-29T22:46:29.869Z,18.20
2022-11-29T22:49:00.636Z,17.10
2022-11-29T22:51:33.463Z,18.03
2022-11-29T22:54:03.355Z,19.03
2022-11-29T22:56:32.850Z,19.13
2022-11-29T22:58:59.655Z,17.10
2022-11-29T23:01:29.414Z,17.10
2022-11-29T23:03:58.754Z,21.23
2022-11-29T23:06:29.736Z,19.23
2022-11-29T23:08:59.312Z,18.73
2022-11-29T23:11:28.620Z,18.00
2022-11-29T23:13:55.905Z,17.77
2022-11-29T23:16:26.428Z,17.57
2022-11-29T23:18:54.722Z,18.00
2022-11-29T23:21:26.446Z,18.00
2022-11-29T23:23:56.622Z,18.03
2022-11-29T23:26:26.884Z,19.30
2022-11-29T23:28:54.549Z,18.70
2022-11-29T23:31:23.065Z,18.93
2022-11-29T23:33:50.077Z,20.10
2022-11-29T23:36:17.522Z,17.63
2022-11-29T23:38:44.372Z,18.30
2022-11-29T23:41:11.720Z,18.37
2022-11-29T23:43:40.697Z,17.17
2022-11-29T23:46:22.607Z,18.57
2022-11-29T23:48:49.752Z,19.93
2022-11-29T23:51:17.487Z,18.33
2022-11-29T23:53:44.777Z,19.63
2022-11-29T23:56:17.080Z,19.83
2022-11-29T23:58:45.259Z,21.50
